Time;durP1;ratioP1;P1;durP2;ratioP2;P2;SDS_P1;SDS_P2;PMS_P1;PMS_P2;Temp;Humidity;BMP_temperature;BMP_pressure;BME280_temperature;BME280_humidity;BME280_pressure;Samples;Min_cycle;Max_cycle;Signal;HPM_P1;HPM_P2
2022/02/03 00:00:05;;;;;;;15.15;11.32;;;9.00;95.00;;;;;;2092409;28;20475;-92
2022/02/03 00:01:11;;;;;;;13.93;10.77;;;9.00;95.00;;;;;;2088471;28;20033;-91
2022/02/03 00:03:21;;;;;;;15.30;11.82;;;9.00;95.00;;;;;;2091503;28;20033;-91
2022/02/03 00:04:24;;;;;;;15.52;12.25;;;9.00;95.00;;;;;;2094237;28;20028;-91
2022/02/03 00:05:46;;;;;;;15.07;11.57;;;8.90;95.00;;;;;;2099265;28;20037;-91
2022/02/03 00:06:54;;;;;;;15.40;11.75;;;9.00;95.00;;;;;;2081868;28;20519;-91
2022/02/03 00:08:08;;;;;;;15.55;12.10;;;8.90;95.00;;;;;;2083425;28;20112;-91
2022/02/03 00:10:38;;;;;;;15.73;11.85;;;8.90;95.00;;;;;;2089756;28;20049;-91
2022/02/03 00:21:59;;;;;;;15.38;11.38;;;8.90;95.30;;;;;;2095458;28;20084;-92
2022/02/03 00:23:23;;;;;;;15.60;12.10;;;8.90;95.10;;;;;;2091380;28;20108;-93
2022/02/03 00:24:11;;;;;;;15.20;11.40;;;8.90;95.10;;;;;;2101617;28;20482;-92
2022/02/03 00:25:27;;;;;;;13.88;11.15;;;8.80;95.10;;;;;;2085789;28;20451;-91
2022/02/03 00:26:35;;;;;;;14.40;10.80;;;8.90;95.10;;;;;;2096638;28;20486;-92
2022/02/03 00:29:05;;;;;;;14.73;11.45;;;8.80;95.30;;;;;;2095558;28;20143;-92
2022/02/03 00:30:11;;;;;;;16.67;11.57;;;8.90;95.20;;;;;;2099539;28;20040;-93
2022/02/03 00:31:32;;;;;;;16.20;11.40;;;8.90;95.20;;;;;;2099139;28;20499;-93
2022/02/03 00:32:49;;;;;;;16.23;12.27;;;8.80;95.40;;;;;;2092903;28;20111;-91
2022/02/03 00:34:02;;;;;;;15.80;11.70;;;8.80;95.10;;;;;;2093857;28;20036;-93
2022/02/03 00:36:24;;;;;;;14.13;11.10;;;8.90;95.20;;;;;;2099304;28;20029;-92
2022/02/03 00:37:34;;;;;;;16.02;11.45;;;8.80;95.10;;;;;;2090879;28;20530;-92
2022/02/03 00:48:19;;;;;;;14.57;11.10;;;8.90;95.20;;;;;;2097093;28;20051;-92
2022/02/03 00:49:17;;;;;;;;;;;8.80;95.10;;;;;;2099099;28;20532;-92
2022/02/03 00:50:25;;;;;;;14.55;10.40;;;8.80;95.10;;;;;;2100806;28;19966;-92
2022/02/03 00:51:28;;;;;;;14.52;11.15;;;8.80;95.10;;;;;;2097664;28;20403;-92
2022/02/03 00:52:33;;;;;;;14.23;11.13;;;8.80;95.10;;;;;;2074288;28;20044;-93
2022/02/03 00:53:35;;;;;;;15.90;10.77;;;8.80;95.40;;;;;;2075215;28;20037;-93
2022/02/03 00:54:36;;;;;;;14.38;11.07;;;8.80;95.20;;;;;;2082671;28;20038;-92
2022/02/03 00:55:37;;;;;;;16.13;11.55;;;8.80;95.20;;;;;;2075740;28;20116;-92
2022/02/03 00:56:40;;;;;;;15.60;11.52;;;8.80;95.20;;;;;;2084895;28;20114;-92
2022/02/03 00:57:45;;;;;;;15.32;11.63;;;8.80;95.30;;;;;;2098677;28;20867;-92
2022/02/03 00:59:02;;;;;;;14.85;11.38;;;8.80;95.30;;;;;;2095981;28;20029;-92
2022/02/03 01:00:11;;;;;;;14.80;11.65;;;8.90;95.30;;;;;;2099155;28;20119;-92
2022/02/03 01:01:16;;;;;;;15.93;11.88;;;8.90;95.30;;;;;;2092941;28;20029;-91
2022/02/03 01:02:20;;;;;;;15.43;12.25;;;8.90;95.40;;;;;;2090279;28;20117;-92
2022/02/03 01:03:27;;;;;;;14.75;11.65;;;8.90;95.30;;;;;;2098903;28;20028;-93
2022/02/03 01:04:30;;;;;;;16.90;11.68;;;8.90;95.40;;;;;;2099588;28;20167;-92
2022/02/03 01:05:31;;;;;;;15.85;11.75;;;8.90;95.40;;;;;;2099366;28;20471;-92
2022/02/03 01:06:35;;;;;;;16.30;12.18;;;8.90;95.40;;;;;;2102585;28;20036;-92
2022/02/03 01:07:38;;;;;;;16.65;12.52;;;8.90;95.40;;;;;;2106285;28;20452;-91
2022/02/03 01:08:44;;;;;;;15.88;12.10;;;8.90;95.40;;;;;;2098676;28;20501;-91
2022/02/03 01:10:03;;;;;;;16.02;12.55;;;8.90;95.40;;;;;;2087366;28;20124;-92
2022/02/03 01:11:13;;;;;;;16.48;12.27;;;8.90;95.40;;;;;;2082482;28;20037;-92
2022/02/03 01:12:30;;;;;;;18.85;13.43;;;8.90;95.40;;;;;;2075111;28;20072;-91
2022/02/03 01:15:49;;;;;;;15.38;12.60;;;8.90;95.40;;;;;;2091753;28;20376;-92
2022/02/03 01:34:56;;;;;;;21.25;14.68;;;8.90;95.40;;;;;;2084986;28;20506;-91
2022/02/03 01:44:00;;;;;;;17.13;13.18;;;8.90;95.50;;;;;;2100792;28;20051;-92
2022/02/03 01:45:06;;;;;;;;;;;8.90;95.40;;;;;;2095697;28;20036;-91
2022/02/03 01:46:15;;;;;;;17.30;12.98;;;8.90;95.40;;;;;;2094535;28;20307;-92
2022/02/03 01:52:33;;;;;;;20.10;14.68;;;8.90;95.50;;;;;;2097830;28;20383;-92
2022/02/03 01:53:35;;;;;;;19.77;14.38;;;8.90;95.40;;;;;;2099577;28;20032;-92
2022/02/03 01:54:37;;;;;;;19.67;14.70;;;8.90;95.40;;;;;;2100508;28;20048;-91
2022/02/03 01:55:44;;;;;;;19.05;14.70;;;8.90;95.50;;;;;;2080114;28;20029;-92
2022/02/03 01:56:51;;;;;;;21.05;15.65;;;8.90;95.50;;;;;;2078482;28;20053;-92
2022/02/03 01:58:13;;;;;;;20.42;15.32;;;8.90;95.50;;;;;;2095104;28;20025;-91
2022/02/03 01:59:22;;;;;;;18.42;14.77;;;8.90;95.50;;;;;;2100382;28;20358;-92
2022/02/03 02:00:25;;;;;;;24.50;17.38;;;8.90;95.50;;;;;;2097712;28;20506;-91
2022/02/03 02:01:26;;;;;;;21.92;16.67;;;8.90;95.50;;;;;;2099810;28;20135;-92
2022/02/03 02:02:32;;;;;;;25.10;18.00;;;8.90;95.50;;;;;;2098520;28;20044;-92
2022/02/03 02:03:45;;;;;;;22.67;17.13;;;8.90;95.50;;;;;;2090628;28;20395;-93
2022/02/03 02:05:10;;;;;;;22.73;17.38;;;8.90;95.50;;;;;;2091832;28;20037;-91
2022/02/03 02:06:31;;;;;;;21.77;15.98;;;8.90;95.50;;;;;;2073729;28;20038;-92
2022/02/03 02:08:00;;;;;;;21.40;16.95;;;8.90;95.50;;;;;;2097990;28;20371;-92
2022/02/03 02:09:07;;;;;;;22.77;16.83;;;8.90;95.50;;;;;;2094612;28;20124;-92
2022/02/03 02:11:39;;;;;;;23.65;16.63;;;8.90;95.50;;;;;;2096448;28;20029;-92
2022/02/03 02:13:18;;;;;;;20.33;16.20;;;8.90;95.50;;;;;;2090135;28;20037;-92
2022/02/03 02:16:03;;;;;;;19.67;15.75;;;8.90;95.50;;;;;;2096567;28;20029;-91
2022/02/03 02:18:18;;;;;;;19.63;15.07;;;8.90;95.50;;;;;;2090581;28;20190;-92
2022/02/03 02:19:06;;;;;;;21.25;15.25;;;8.90;95.50;;;;;;2085800;28;20041;-92
2022/02/03 02:38:42;;;;;;;19.90;14.88;;;8.90;95.50;;;;;;2096770;28;20451;-91
2022/02/03 02:40:03;;;;;;;22.83;15.43;;;8.90;95.50;;;;;;2098556;28;20036;-92
2022/02/03 02:42:35;;;;;;;24.38;17.70;;;8.90;95.50;;;;;;2091759;28;20040;-92
2022/02/03 02:43:55;;;;;;;21.48;16.25;;;8.90;95.50;;;;;;2081526;28;20511;-92
2022/02/03 02:45:17;;;;;;;22.92;16.20;;;8.90;95.50;;;;;;2086722;28;20032;-92
2022/02/03 02:46:45;;;;;;;21.77;15.80;;;8.90;95.50;;;;;;2091403;28;20031;-91
2022/02/03 02:48:06;;;;;;;19.88;15.35;;;8.90;95.50;;;;;;2097360;28;20319;-92
2022/02/03 02:49:21;;;;;;;20.77;15.73;;;8.90;95.80;;;;;;2097012;28;20025;-92
2022/02/03 02:50:42;;;;;;;23.42;16.33;;;8.90;95.50;;;;;;2098455;28;20048;-91
2022/02/03 02:52:01;;;;;;;23.15;16.65;;;8.90;95.50;;;;;;2098793;28;20454;-92
2022/02/03 02:54:48;;;;;;;22.45;16.35;;;8.90;95.50;;;;;;2096386;28;20036;-91
2022/02/03 02:56:14;;;;;;;23.77;17.23;;;8.90;95.50;;;;;;2081765;28;20042;-91
2022/02/03 03:01:12;;;;;;;27.58;18.00;;;8.90;95.50;;;;;;2090934;28;20083;-91
2022/02/03 03:31:23;;;;;;;23.48;16.33;;;8.80;95.40;;;;;;2094655;28;20037;-90
2022/02/03 03:32:47;;;;;;;22.90;16.40;;;8.80;95.50;;;;;;2090326;28;20065;-90
2022/02/03 03:36:12;;;;;;;22.95;16.45;;;8.80;95.50;;;;;;2090151;28;20510;-90
2022/02/03 03:37:25;;;;;;;23.83;16.40;;;8.80;95.50;;;;;;2081503;28;20104;-89
2022/02/03 03:38:30;;;;;;;21.50;15.77;;;8.80;95.50;;;;;;2087607;28;20040;-92
2022/02/03 03:39:39;;;;;;;21.27;16.00;;;8.80;95.50;;;;;;2086134;28;20045;-89
2022/02/03 03:40:46;;;;;;;20.88;15.25;;;8.80;95.50;;;;;;2094851;28;20045;-90
2022/02/03 03:41:47;;;;;;;20.98;15.40;;;8.80;95.50;;;;;;2093751;28;20064;-90
2022/02/03 03:43:09;;;;;;;22.90;15.52;;;8.80;95.50;;;;;;2085701;28;20041;-89
2022/02/03 03:44:14;;;;;;;20.02;14.88;;;8.80;95.50;;;;;;2092904;28;20055;-90
2022/02/03 03:45:15;;;;;;;19.63;14.07;;;8.80;95.50;;;;;;2096112;28;20036;-89
2022/02/03 03:46:25;;;;;;;21.88;15.52;;;8.80;95.50;;;;;;2088060;28;20045;-89
2022/02/03 03:47:28;;;;;;;20.90;15.10;;;8.80;95.50;;;;;;2089634;28;20033;-90
2022/02/03 03:48:34;;;;;;;18.42;13.80;;;8.80;95.50;;;;;;2102811;28;20031;-90
2022/02/03 03:49:44;;;;;;;21.65;15.45;;;8.80;95.50;;;;;;2105881;28;20136;-90
2022/02/03 03:50:52;;;;;;;21.65;15.07;;;8.80;95.50;;;;;;2092539;28;20033;-90
2022/02/03 03:52:02;;;;;;;20.45;15.15;;;8.80;95.50;;;;;;2090337;28;20029;-89
2022/02/03 03:53:16;;;;;;;19.48;14.82;;;8.80;95.50;;;;;;2091058;28;20097;-90
2022/02/03 03:54:30;;;;;;;21.48;14.43;;;8.80;95.50;;;;;;2098331;28;20032;-89
2022/02/03 05:04:24;;;;;;;17.02;11.80;;;8.50;95.10;;;;;;2102611;28;19904;-91
2022/02/03 05:07:26;;;;;;;15.70;11.57;;;8.60;95.10;;;;;;2098352;28;20040;-91
2022/02/03 05:09:18;;;;;;;16.42;11.93;;;8.50;95.10;;;;;;2082417;28;20045;-91
2022/02/03 05:10:47;;;;;;;16.25;11.55;;;8.50;95.10;;;;;;2089943;28;20112;-91
2022/02/03 05:14:10;;;;;;;15.48;11.48;;;8.50;95.10;;;;;;2091288;28;20029;-92
2022/02/03 05:17:52;;;;;;;15.48;10.60;;;8.50;95.10;;;;;;2091853;28;20044;-91
2022/02/03 05:50:39;;;;;;;13.93;10.90;;;8.40;94.90;;;;;;2097492;28;20478;-91
2022/02/03 05:52:03;;;;;;;16.85;11.55;;;8.40;94.90;;;;;;2089542;28;20037;-91
2022/02/03 06:04:13;;;;;;;13.70;10.75;;;8.40;94.70;;;;;;2091017;28;20410;-92
2022/02/03 06:07:48;;;;;;;14.48;10.63;;;8.40;94.80;;;;;;2095478;28;20041;-91
2022/02/03 06:14:56;;;;;;;13.80;10.13;;;8.40;94.70;;;;;;2089056;28;20033;-92
2022/02/03 06:16:33;;;;;;;11.30;9.00;;;8.40;94.70;;;;;;2089992;28;20092;-91
2022/02/03 06:24:13;;;;;;;14.52;9.60;;;8.40;94.60;;;;;;2073928;28;20041;-91
2022/02/03 06:27:26;;;;;;;10.35;8.40;;;8.40;94.60;;;;;;2097860;28;20059;-91
2022/02/03 06:28:27;;;;;;;10.85;8.35;;;8.40;94.60;;;;;;2075619;28;20029;-92
2022/02/03 06:29:31;;;;;;;11.07;8.07;;;8.40;94.60;;;;;;2073027;28;20038;-88
2022/02/03 06:30:32;;;;;;;11.68;8.35;;;8.40;94.60;;;;;;2084408;28;20033;-90
2022/02/03 06:31:42;;;;;;;12.40;8.60;;;8.40;94.60;;;;;;2090280;28;20077;-91
2022/02/03 06:32:43;;;;;;;10.85;8.18;;;8.40;94.60;;;;;;2097149;28;20426;-91
2022/02/03 06:33:45;;;;;;;10.90;7.80;;;8.40;94.60;;;;;;2098455;28;20024;-92
2022/02/03 06:34:46;;;;;;;9.43;7.65;;;8.40;94.60;;;;;;2080235;28;20049;-91
2022/02/03 06:35:47;;;;;;;9.52;7.60;;;8.40;94.60;;;;;;2073531;28;20057;-91
2022/02/03 06:36:50;;;;;;;9.52;6.97;;;8.40;94.60;;;;;;2073082;28;20428;-91
2022/02/03 06:37:51;;;;;;;12.15;7.63;;;8.40;94.60;;;;;;2074287;28;20443;-91
2022/02/03 06:38:51;;;;;;;10.00;7.38;;;8.40;94.60;;;;;;2093505;28;20098;-90
2022/02/03 06:39:52;;;;;;;9.23;7.28;;;8.40;94.60;;;;;;2095586;28;20141;-90
2022/02/03 06:40:53;;;;;;;9.75;7.28;;;8.40;94.60;;;;;;2080969;28;20036;-92
2022/02/03 06:41:57;;;;;;;8.23;6.55;;;8.40;94.60;;;;;;2069942;28;20041;-91
2022/02/03 06:42:58;;;;;;;9.20;6.60;;;8.40;94.50;;;;;;2081819;28;20037;-91
2022/02/03 06:43:59;;;;;;;10.00;7.22;;;8.40;94.50;;;;;;2081098;28;20512;-90
2022/02/03 06:45:16;;;;;;;8.35;6.35;;;8.40;94.50;;;;;;2087317;28;20041;-91
2022/02/03 06:46:18;;;;;;;7.78;5.88;;;8.40;94.50;;;;;;2097754;28;20088;-89
2022/02/03 06:47:36;;;;;;;8.48;6.18;;;8.40;94.50;;;;;;2098332;28;20483;-90
2022/02/03 06:48:38;;;;;;;8.07;5.60;;;8.40;94.50;;;;;;2097137;28;20132;-89
2022/02/03 06:50:52;;;;;;;7.32;5.00;;;8.40;94.50;;;;;;2094302;28;20037;-89
2022/02/03 06:51:59;;;;;;;7.85;5.35;;;8.40;94.50;;;;;;2089805;28;20059;-90
2022/02/03 06:53:16;;;;;;;7.75;4.40;;;8.40;94.70;;;;;;2082603;28;20042;-90
2022/02/03 06:54:26;;;;;;;6.80;4.50;;;8.30;94.40;;;;;;2090883;28;20068;-90
2022/02/03 06:55:56;;;;;;;9.60;4.50;;;8.30;94.40;;;;;;2084753;28;20549;-88
2022/02/03 06:57:01;;;;;;;7.43;4.57;;;8.30;94.40;;;;;;2073364;28;20034;-89
2022/02/03 06:58:13;;;;;;;6.10;3.70;;;8.30;94.40;;;;;;2095562;28;20139;-89
2022/02/03 06:59:16;;;;;;;7.25;3.72;;;8.30;94.40;;;;;;2101673;28;20051;-89
2022/02/03 07:00:21;;;;;;;7.07;3.38;;;8.30;94.40;;;;;;2094969;28;20111;-90
2022/02/03 07:01:35;;;;;;;5.03;3.30;;;8.30;94.40;;;;;;2091914;28;20096;-89
2022/02/03 07:02:41;;;;;;;6.03;3.28;;;8.30;94.40;;;;;;2102118;28;20068;-89
2022/02/03 07:03:49;;;;;;;4.78;3.10;;;8.30;94.40;;;;;;2097713;28;20399;-89
2022/02/03 07:04:50;;;;;;;5.15;3.03;;;8.30;94.40;;;;;;2083168;28;20097;-90
2022/02/03 07:05:51;;;;;;;4.68;3.08;;;8.30;94.40;;;;;;2082285;28;20037;-89
2022/02/03 07:06:51;;;;;;;6.03;2.92;;;8.30;94.40;;;;;;2088981;28;20040;-89
2022/02/03 07:07:53;;;;;;;5.30;2.90;;;8.30;94.40;;;;;;2088896;28;20069;-80
2022/02/03 07:08:54;;;;;;;5.28;3.13;;;8.30;94.40;;;;;;2095569;28;20029;-89
2022/02/03 07:09:54;;;;;;;5.80;2.85;;;8.30;94.40;;;;;;2098719;28;20056;-88
2022/02/03 07:10:56;;;;;;;4.65;2.70;;;8.30;94.40;;;;;;2097472;28;20048;-90
2022/02/03 07:11:56;;;;;;;6.13;3.08;;;8.30;94.40;;;;;;2073347;28;20073;-89
2022/02/03 07:12:59;;;;;;;6.72;3.17;;;8.30;94.40;;;;;;2084723;28;20034;-90
2022/02/03 07:13:59;;;;;;;5.95;3.05;;;8.30;94.40;;;;;;2097463;28;20121;-90
2022/02/03 07:15:02;;;;;;;7.10;2.90;;;8.30;94.30;;;;;;2082315;28;20041;-90
2022/02/03 07:16:03;;;;;;;4.15;2.40;;;8.30;94.30;;;;;;2093153;28;20135;-90
2022/02/03 07:17:05;;;;;;;4.88;2.83;;;8.30;94.30;;;;;;2092485;28;20037;-90
2022/02/03 07:18:05;;;;;;;4.05;2.53;;;8.30;94.30;;;;;;2097340;28;20045;-90
2022/02/03 07:19:06;;;;;;;4.70;2.50;;;8.30;94.30;;;;;;2102510;28;20513;-90
2022/02/03 07:20:12;;;;;;;4.53;2.47;;;8.30;94.30;;;;;;2104089;28;20490;-89
2022/02/03 07:21:13;;;;;;;5.38;2.85;;;8.30;94.60;;;;;;2085670;28;20078;-90
2022/02/03 07:22:15;;;;;;;5.80;2.83;;;8.30;94.30;;;;;;2073515;28;20142;-90
2022/02/03 07:23:16;;;;;;;5.00;2.50;;;8.30;94.30;;;;;;2086467;28;20049;-91
2022/02/03 07:24:16;;;;;;;4.38;2.35;;;8.30;94.30;;;;;;2081160;28;20455;-89
2022/02/03 07:25:17;;;;;;;4.68;2.40;;;8.30;94.30;;;;;;2089942;28;20506;-89
2022/02/03 07:26:18;;;;;;;6.38;2.80;;;8.30;94.30;;;;;;2088553;28;20037;-90
2022/02/03 07:27:22;;;;;;;5.82;2.33;;;8.30;94.30;;;;;;2071933;28;20034;-89
2022/02/03 07:28:22;;;;;;;4.60;2.40;;;8.30;94.30;;;;;;2080567;28;20077;-89
2022/02/03 07:29:23;;;;;;;4.88;2.50;;;8.30;94.30;;;;;;2079330;28;20164;-88
2022/02/03 07:30:24;;;;;;;4.18;2.38;;;8.30;94.30;;;;;;2081103;28;20504;-90
2022/02/03 07:31:25;;;;;;;4.15;2.40;;;8.30;94.30;;;;;;2099290;28;20043;-89
2022/02/03 07:32:26;;;;;;;5.07;2.30;;;8.30;94.30;;;;;;2082664;28;20064;-90
2022/02/03 07:33:26;;;;;;;4.10;2.47;;;8.30;94.20;;;;;;2067795;28;20592;-92
2022/02/03 07:34:27;;;;;;;4.40;2.28;;;8.30;94.20;;;;;;2088920;28;20068;-91
2022/02/03 07:35:29;;;;;;;4.93;2.42;;;8.30;94.20;;;;;;2092164;28;20037;-91
2022/02/03 07:36:30;;;;;;;4.22;2.25;;;8.30;94.20;;;;;;2086631;28;20033;-91
2022/02/03 07:37:31;;;;;;;4.72;2.40;;;8.30;94.20;;;;;;2088855;28;20526;-91
2022/02/03 07:38:31;;;;;;;4.38;2.22;;;8.30;94.20;;;;;;2089342;28;20403;-90
2022/02/03 07:39:33;;;;;;;4.25;2.47;;;8.30;94.20;;;;;;2089431;28;20051;-90
2022/02/03 07:40:35;;;;;;;5.57;2.28;;;8.30;94.20;;;;;;2079950;28;20040;-91
2022/02/03 07:41:36;;;;;;;3.63;2.30;;;8.30;94.20;;;;;;2088442;28;20033;-90
2022/02/03 07:42:40;;;;;;;5.32;2.80;;;8.30;94.20;;;;;;2096306;28;20044;-91
2022/02/03 07:43:41;;;;;;;4.35;2.22;;;8.30;94.20;;;;;;2098641;28;20123;-91
2022/02/03 07:44:41;;;;;;;4.47;2.53;;;8.30;94.20;;;;;;2081017;28;20534;-91
2022/02/03 07:45:42;;;;;;;6.32;2.60;;;8.30;94.10;;;;;;2087711;28;20021;-90
2022/02/03 07:46:43;;;;;;;4.78;2.40;;;8.30;94.10;;;;;;2085104;28;20042;-91
2022/02/03 07:47:51;;;;;;;4.47;2.70;;;8.30;94.10;;;;;;2090409;28;20029;-90
2022/02/03 07:48:53;;;;;;;5.43;2.60;;;8.30;94.10;;;;;;2099708;28;20033;-87
2022/02/03 07:49:54;;;;;;;6.38;3.05;;;8.30;94.10;;;;;;2099580;28;20066;-91
2022/02/03 07:50:55;;;;;;;5.97;3.20;;;8.30;94.10;;;;;;2081378;28;20160;-90
2022/02/03 07:51:56;;;;;;;4.93;2.92;;;8.30;94.10;;;;;;2080647;28;20132;-91
2022/02/03 07:52:57;;;;;;;5.63;2.90;;;8.30;94.10;;;;;;2087875;28;20033;-90
2022/02/03 07:53:57;;;;;;;5.60;3.00;;;8.30;94.10;;;;;;2072538;28;20062;-89
2022/02/03 07:54:58;;;;;;;4.97;2.80;;;8.30;94.10;;;;;;2072556;28;20070;-90
2022/02/03 07:55:58;;;;;;;6.05;3.30;;;8.30;94.10;;;;;;2080466;28;20022;-91
2022/02/03 07:57:00;;;;;;;5.78;3.50;;;8.30;94.10;;;;;;2097972;28;20037;-90
2022/02/03 07:58:03;;;;;;;6.75;3.72;;;8.30;94.00;;;;;;2089336;28;20108;-90
2022/02/03 07:59:04;;;;;;;7.85;3.97;;;8.30;94.00;;;;;;2081776;28;20042;-91
2022/02/03 08:00:05;;;;;;;6.85;3.80;;;8.30;94.00;;;;;;2090692;28;20039;-91
2022/02/03 08:01:06;;;;;;;7.00;4.28;;;8.30;94.00;;;;;;2089354;28;20041;-89
2022/02/03 08:02:07;;;;;;;6.38;3.78;;;8.30;94.00;;;;;;2081535;28;20064;-91
2022/02/03 08:03:11;;;;;;;6.43;3.92;;;8.30;93.90;;;;;;2074654;28;20393;-90
2022/02/03 08:04:12;;;;;;;7.75;4.03;;;8.30;93.90;;;;;;2087375;28;20501;-90
2022/02/03 08:05:16;;;;;;;6.40;3.75;;;8.30;93.90;;;;;;2084187;28;20096;-91
2022/02/03 08:06:23;;;;;;;8.13;4.13;;;8.30;93.90;;;;;;2065037;28;20097;-91
2022/02/03 08:07:25;;;;;;;8.75;4.40;;;8.30;93.90;;;;;;2080744;28;20052;-91
2022/02/03 08:08:43;;;;;;;8.75;4.70;;;8.30;93.90;;;;;;2078130;28;20034;-90
2022/02/03 08:10:04;;;;;;;8.05;4.55;;;8.30;93.90;;;;;;2075712;28;20070;-93
2022/02/03 08:11:09;;;;;;;6.93;4.30;;;8.30;93.90;;;;;;2084324;28;20044;-90
2022/02/03 08:12:12;;;;;;;7.20;4.57;;;8.30;93.80;;;;;;2090350;28;20041;-91
2022/02/03 08:13:20;;;;;;;8.70;4.45;;;8.30;93.80;;;;;;2104910;28;20044;-90
2022/02/03 08:14:34;;;;;;;8.10;4.55;;;8.30;93.80;;;;;;2089806;28;20068;-91
2022/02/03 08:15:38;;;;;;;6.75;4.28;;;8.30;93.80;;;;;;2085995;28;20069;-92
2022/02/03 08:16:52;;;;;;;7.95;4.93;;;8.30;93.80;;;;;;2090950;28;20399;-90
2022/02/03 08:17:59;;;;;;;8.27;5.32;;;8.30;93.80;;;;;;2076190;28;20033;-90
2022/02/03 08:19:06;;;;;;;8.55;5.30;;;8.30;93.80;;;;;;2084044;28;20030;-90
2022/02/03 08:20:14;;;;;;;7.60;4.95;;;8.30;93.70;;;;;;2069828;28;20170;-90
2022/02/03 08:21:16;;;;;;;11.20;5.50;;;8.30;93.70;;;;;;2080201;28;20034;-92
2022/02/03 08:22:25;;;;;;;8.18;5.22;;;8.20;93.70;;;;;;2085514;28;20037;-92
2022/02/03 08:23:53;;;;;;;8.27;5.07;;;8.30;93.70;;;;;;2077093;28;20046;-91
2022/02/03 08:25:13;;;;;;;7.82;5.47;;;8.20;93.70;;;;;;2080172;28;20037;-91
2022/02/03 08:26:30;;;;;;;8.55;5.30;;;8.20;93.70;;;;;;2097108;28;20037;-90
2022/02/03 08:30:06;;;;;;;9.70;5.47;;;8.20;93.60;;;;;;2098562;28;20055;-89
2022/02/03 08:31:01;;;;;;;7.65;5.10;;;8.30;93.70;;;;;;2099449;28;20056;-90
2022/02/03 08:32:12;;;;;;;6.90;4.80;;;8.30;93.60;;;;;;2076532;28;20030;-91
2022/02/03 08:33:19;;;;;;;7.40;5.07;;;8.20;93.60;;;;;;2078553;28;20066;-92
2022/02/03 08:35:48;;;;;;;8.20;4.80;;;8.20;93.60;;;;;;2053485;28;20043;-91
2022/02/03 08:36:48;;;;;;;8.88;5.43;;;8.20;93.60;;;;;;2091751;28;20068;-91
2022/02/03 08:38:02;;;;;;;10.32;6.28;;;8.20;93.60;;;;;;2093239;28;20072;-91
2022/02/03 08:39:07;;;;;;;9.32;5.57;;;8.20;93.50;;;;;;2094548;28;20471;-91
2022/02/03 08:40:13;;;;;;;9.38;5.82;;;8.20;93.50;;;;;;2096699;28;20033;-91
2022/02/03 08:41:14;;;;;;;9.68;5.78;;;8.30;93.50;;;;;;2081870;28;20044;-91
2022/02/03 08:42:15;;;;;;;10.00;6.18;;;8.20;93.50;;;;;;2075548;28;20109;-91
2022/02/03 08:43:16;;;;;;;10.75;6.50;;;8.30;93.50;;;;;;2091554;28;20037;-90
2022/02/03 08:44:17;;;;;;;9.00;6.10;;;8.30;93.50;;;;;;2094268;28;20030;-91
2022/02/03 08:45:18;;;;;;;9.40;6.03;;;8.20;93.40;;;;;;2092161;28;20039;-88
2022/02/03 08:46:24;;;;;;;8.40;5.43;;;8.20;93.40;;;;;;2097471;28;20029;-90
2022/02/03 08:47:25;;;;;;;8.73;5.45;;;8.20;93.50;;;;;;2081336;28;20145;-89
2022/02/03 08:48:27;;;;;;;7.43;5.40;;;8.20;93.40;;;;;;2080734;28;20038;-90
2022/02/03 08:49:27;;;;;;;8.82;5.68;;;8.20;93.50;;;;;;2087027;28;20063;-90
2022/02/03 08:50:28;;;;;;;10.02;6.00;;;8.30;93.50;;;;;;2082495;28;20095;-89
2022/02/03 08:51:30;;;;;;;9.73;5.60;;;8.20;93.40;;;;;;2082008;28;20561;-90
2022/02/03 08:52:39;;;;;;;9.50;6.05;;;8.20;93.40;;;;;;2073906;28;20405;-89
2022/02/03 08:53:49;;;;;;;10.65;6.82;;;8.20;93.30;;;;;;2067057;28;20038;-89
2022/02/03 08:55:03;;;;;;;10.00;6.32;;;8.20;93.30;;;;;;2079234;28;20101;-89
2022/02/03 08:57:37;;;;;;;8.35;5.68;;;8.20;93.30;;;;;;2091057;28;20110;-89
2022/02/03 09:00:39;;;;;;;7.72;5.57;;;8.20;93.30;;;;;;2071974;28;20081;-90
2022/02/03 09:38:25;;;;;;;10.15;5.40;;;8.20;93.10;;;;;;2090557;28;20132;-90
2022/02/03 09:55:06;;;;;;;10.60;6.65;;;8.20;93.00;;;;;;2096251;28;20099;-91
2022/02/03 09:58:28;;;;;;;9.07;5.97;;;8.10;92.90;;;;;;2095419;28;20045;-90
2022/02/03 10:02:07;;;;;;;9.23;5.65;;;8.10;92.90;;;;;;2094103;28;20032;-90
2022/02/03 10:03:17;;;;;;;7.72;5.35;;;8.20;93.00;;;;;;2082791;28;20076;-89
2022/02/03 10:04:42;;;;;;;8.65;5.68;;;8.20;93.00;;;;;;2082120;28;20038;-90
2022/02/03 10:06:07;;;;;;;8.98;5.20;;;8.20;93.00;;;;;;2085666;28;20207;-89
2022/02/03 10:07:15;;;;;;;9.90;5.43;;;8.20;93.00;;;;;;2098621;28;20028;-90
2022/02/03 10:08:19;;;;;;;9.32;5.22;;;8.20;93.00;;;;;;2084610;28;20072;-91
2022/02/03 10:09:40;;;;;;;8.38;5.47;;;8.20;93.00;;;;;;2078554;28;20392;-91
2022/02/03 10:10:41;;;;;;;9.20;5.05;;;8.20;93.00;;;;;;2087552;28;20064;-89
2022/02/03 10:11:41;;;;;;;9.68;5.72;;;8.20;93.00;;;;;;2066063;28;20046;-90
2022/02/03 10:12:42;;;;;;;11.30;5.85;;;8.20;93.00;;;;;;2065665;28;20049;-90
2022/02/03 10:13:54;;;;;;;9.45;5.53;;;8.20;93.00;;;;;;2073441;28;20052;-90
2022/02/03 10:14:55;;;;;;;8.70;5.80;;;8.10;93.00;;;;;;2074863;28;20141;-90
2022/02/03 10:16:06;;;;;;;10.45;6.15;;;8.10;93.10;;;;;;2083500;28;20041;-91
2022/02/03 10:17:08;;;;;;;9.40;6.35;;;8.10;93.10;;;;;;2078045;28;20033;-90
2022/02/03 10:18:29;;;;;;;9.40;6.30;;;8.10;93.10;;;;;;2086004;28;20026;-91
2022/02/03 10:19:40;;;;;;;10.95;6.30;;;8.10;93.20;;;;;;2073389;28;20408;-92
2022/02/03 10:20:48;;;;;;;10.18;6.03;;;8.00;93.20;;;;;;2076308;28;20045;-85
2022/02/03 10:21:50;;;;;;;9.57;5.93;;;8.00;93.20;;;;;;2088489;28;20099;-89
2022/02/03 10:22:55;;;;;;;8.80;6.03;;;8.00;93.20;;;;;;2089499;28;20075;-91
2022/02/03 10:24:06;;;;;;;9.35;5.63;;;8.00;93.30;;;;;;2084348;28;20036;-90
2022/02/03 10:25:13;;;;;;;;;;;7.90;93.30;;;;;;2088230;28;20040;-90
2022/02/03 10:26:14;;;;;;;8.23;5.35;;;8.00;93.30;;;;;;2093067;28;19920;-90
2022/02/03 10:27:35;;;;;;;10.15;5.90;;;7.90;93.30;;;;;;2089475;28;20474;-89
2022/02/03 10:28:37;;;;;;;9.77;6.38;;;7.90;93.30;;;;;;2093233;28;20053;-90
2022/02/03 10:29:44;;;;;;;8.40;6.03;;;7.90;93.30;;;;;;2089636;28;20048;-90
2022/02/03 10:30:49;;;;;;;8.25;5.53;;;7.90;93.30;;;;;;2085853;28;20490;-91
2022/02/03 10:31:50;;;;;;;9.30;5.47;;;7.90;93.40;;;;;;2081808;28;20073;-90
2022/02/03 10:32:52;;;;;;;8.77;5.80;;;7.90;93.40;;;;;;2077686;28;20045;-91
2022/02/03 10:34:07;;;;;;;8.88;5.65;;;7.90;93.40;;;;;;2072680;28;20034;-91
2022/02/03 10:35:27;;;;;;;11.13;5.97;;;7.90;93.40;;;;;;2073079;28;20093;-90
2022/02/03 10:38:19;;;;;;;8.68;5.20;;;8.00;93.40;;;;;;2087127;28;20045;-91
2022/02/03 10:40:07;;;;;;;9.50;5.72;;;8.00;93.70;;;;;;2094028;28;20041;-91
2022/02/03 10:45:16;;;;;;;8.07;5.28;;;8.00;93.30;;;;;;2088020;28;20048;-91
2022/02/03 10:49:32;;;;;;;8.05;5.68;;;8.10;93.30;;;;;;2096014;28;20176;-91
2022/02/03 10:52:04;;;;;;;10.48;5.72;;;8.10;93.20;;;;;;2083823;28;20079;-90
2022/02/03 10:55:56;;;;;;;10.73;5.75;;;8.10;93.10;;;;;;2085166;28;20098;-90
2022/02/03 11:00:57;;;;;;;9.23;5.32;;;8.10;93.10;;;;;;2086162;28;20041;-90
2022/02/03 11:03:28;;;;;;;8.00;4.72;;;8.20;93.10;;;;;;2094274;28;20032;-91
2022/02/03 11:06:05;;;;;;;8.88;5.15;;;8.20;93.00;;;;;;2078986;28;20477;-91
2022/02/03 11:07:24;;;;;;;8.82;4.70;;;8.20;93.00;;;;;;2087186;28;20045;-89
2022/02/03 11:08:38;;;;;;;7.78;4.85;;;8.20;92.90;;;;;;2092127;28;20049;-91
2022/02/03 11:09:54;;;;;;;10.98;5.13;;;8.30;92.90;;;;;;2089509;28;20065;-90
2022/02/03 11:10:58;;;;;;;8.45;4.82;;;8.30;92.90;;;;;;2081612;28;20083;-89
2022/02/03 11:12:00;;;;;;;10.30;5.50;;;8.30;92.80;;;;;;2079835;28;20072;-90
2022/02/03 11:13:02;;;;;;;9.45;5.97;;;8.30;92.80;;;;;;2084269;28;20041;-83
2022/02/03 11:14:03;;;;;;;8.65;5.43;;;8.40;92.80;;;;;;2093762;28;20036;-91
2022/02/03 11:15:05;;;;;;;8.70;5.07;;;8.40;92.80;;;;;;2090414;28;20406;-91
2022/02/03 11:16:07;;;;;;;9.07;4.75;;;8.40;92.80;;;;;;2097158;28;20036;-91
2022/02/03 11:17:10;;;;;;;8.07;4.93;;;8.40;92.80;;;;;;2093591;28;20037;-90
2022/02/03 11:18:12;;;;;;;9.27;5.05;;;8.40;92.80;;;;;;2083647;28;20033;-90
2022/02/03 11:19:16;;;;;;;8.35;4.80;;;8.40;92.70;;;;;;2098612;28;20095;-91
2022/02/03 11:20:19;;;;;;;8.02;4.72;;;8.40;92.70;;;;;;2096838;28;20491;-93
2022/02/03 11:21:20;;;;;;;7.80;4.82;;;8.40;92.70;;;;;;2095811;28;20063;-89
2022/02/03 11:22:31;;;;;;;9.57;4.95;;;8.50;92.80;;;;;;2097012;28;20102;-90
2022/02/03 11:23:41;;;;;;;7.32;4.85;;;8.40;92.70;;;;;;2096107;28;20041;-90
2022/02/03 11:24:48;;;;;;;8.80;4.55;;;8.50;92.70;;;;;;2081320;28;20061;-90
2022/02/03 11:27:10;;;;;;;8.38;4.70;;;8.50;92.60;;;;;;2100882;28;20033;-91
2022/02/03 11:30:16;;;;;;;8.00;4.28;;;8.50;92.60;;;;;;2094999;28;20495;-91
2022/02/03 11:31:55;;;;;;;6.20;3.90;;;8.50;92.60;;;;;;2083146;28;20045;-90
2022/02/03 11:33:01;;;;;;;9.98;3.88;;;8.50;92.60;;;;;;2091589;28;20083;-91
2022/02/03 11:39:24;;;;;;;7.95;4.47;;;8.50;92.60;;;;;;2086545;28;20022;-90
2022/02/03 11:53:42;;;;;;;8.63;4.50;;;8.40;92.30;;;;;;2088644;28;20036;-90